TimeEDT,TemperatureF,Dew PointF,Humidity,Sea Level PressureIn,VisibilityMPH,Wind Direction,Wind SpeedMPH,Gust SpeedMPH,PrecipitationIn,Events,Conditions,WindDirDegrees,DateUTC
12:02 AM,66.2,64.4,94,29.80,2.0,East,6.9,-,N/A,Rain,Rain,90,2012-09-18 04:02:00
12:18 AM,66.2,64.4,94,29.80,2.5,ESE,5.8,-,0.09,Rain,Rain,120,2012-09-18 04:18:00
12:33 AM,66.2,64.4,94,29.79,2.5,ESE,5.8,-,0.13,Rain,Heavy Rain,110,2012-09-18 04:33:00
12:48 AM,66.2,64.4,94,29.77,4.0,ESE,4.6,-,0.18,Rain,Light Rain,120,2012-09-18 04:48:00
12:51 AM,66.0,64.9,96,29.75,4.0,ESE,5.8,-,0.19,Rain,Light Rain,120,2012-09-18 04:51:00
1:00 AM,64.4,64.4,100,29.76,2.5,ESE,4.6,-,0.01,Rain,Rain,110,2012-09-18 05:00:00
1:23 AM,64.4,64.4,100,29.74,1.5,East,4.6,-,0.04,Rain,Rain,100,2012-09-18 05:23:00
1:51 AM,64.9,64.0,97,29.70,1.8,East,5.8,-,0.14,Rain,Rain,80,2012-09-18 05:51:00
2:01 AM,64.4,64.4,100,29.71,2.5,ESE,4.6,-,0.02,Rain,Rain,110,2012-09-18 06:01:00
2:10 AM,64.4,64.4,100,29.71,1.2,East,4.6,-,0.13,Rain,Heavy Rain,90,2012-09-18 06:10:00
2:37 AM,64.4,64.4,100,29.69,0.5,North,4.6,-,0.46,Fog-Rain,Heavy Rain,10,2012-09-18 06:37:00
2:48 AM,64.4,64.4,100,29.68,1.5,NNW,9.2,-,0.69,Rain,Heavy Rain,330,2012-09-18 06:48:00
2:51 AM,64.9,64.0,97,29.66,1.5,NW,11.5,-,0.72,Rain,Heavy Rain,320,2012-09-18 06:51:00
2:59 AM,64.4,64.4,100,29.68,1.5,NW,11.5,20.7,0.10,Rain,Heavy Rain,310,2012-09-18 06:59:00
3:06 AM,64.4,64.4,100,29.68,1.0,WNW,11.5,23.0,0.24,Rain,Heavy Rain,290,2012-09-18 07:06:00
3:32 AM,62.6,62.6,100,29.67,2.0,North,3.5,-,0.64,Rain,Heavy Rain,10,2012-09-18 07:32:00
3:41 AM,62.6,62.6,100,29.66,6.0,ENE,3.5,-,0.68,Rain,Light Rain,70,2012-09-18 07:41:00
3:51 AM,63.0,62.1,97,29.62,6.0,NE,5.8,-,0.68,Rain,Light Rain,50,2012-09-18 07:51:00
4:51 AM,63.0,62.1,97,29.63,10.0,SW,5.8,-,0.01,Rain,Light Rain,220,2012-09-18 08:51:00
5:02 AM,62.6,62.6,100,29.65,6.0,SSW,5.8,-,0.00,,Mostly Cloudy,210,2012-09-18 09:02:00
5:20 AM,62.6,62.6,100,29.66,8.0,SW,4.6,-,0.00,Rain,Light Rain,220,2012-09-18 09:20:00
5:51 AM,63.0,62.1,97,29.63,10.0,Calm,Calm,-,0.01,,Mostly Cloudy,0,2012-09-18 09:51:00
6:44 AM,62.6,62.6,100,29.66,5.0,Calm,Calm,-,0.01,Rain,Light Rain,0,2012-09-18 10:44:00
6:51 AM,63.0,62.1,97,29.64,4.0,Calm,Calm,-,0.02,Rain,Light Rain,0,2012-09-18 10:51:00
7:51 AM,64.0,63.0,96,29.66,4.0,Calm,Calm,-,0.02,Rain,Light Rain,0,2012-09-18 11:51:00
8:48 AM,64.4,62.6,94,29.68,10.0,SSW,4.6,-,0.02,,Overcast,210,2012-09-18 12:48:00
8:51 AM,64.0,64.0,100,29.67,10.0,SSW,4.6,-,0.02,,Overcast,210,2012-09-18 12:51:00
9:49 AM,64.4,64.4,100,29.69,10.0,SW,3.5,-,0.00,,Overcast,220,2012-09-18 13:49:00
9:51 AM,64.4,64.4,100,29.69,10.0,SSW,4.6,-,N/A,,Overcast,210,2012-09-18 13:51:00
10:26 AM,64.4,64.4,100,29.69,3.0,SW,3.5,-,N/A,,Overcast,220,2012-09-18 14:26:00
10:31 AM,64.4,64.4,100,29.70,2.5,SW,4.6,-,0.00,Rain,Light Rain,230,2012-09-18 14:31:00
10:38 AM,64.4,64.4,100,29.69,1.8,SW,4.6,-,0.02,Rain,Light Rain,230,2012-09-18 14:38:00
10:42 AM,64.4,64.4,100,29.69,4.0,WSW,5.8,-,0.02,Rain,Light Rain,240,2012-09-18 14:42:00
10:51 AM,66.0,64.9,96,29.68,2.0,SW,5.8,-,0.02,,Overcast,220,2012-09-18 14:51:00
11:32 AM,66.2,64.4,94,29.71,5.0,WSW,5.8,-,0.00,Rain,Light Rain,240,2012-09-18 15:32:00
11:41 AM,66.2,64.4,94,29.71,5.0,SW,6.9,-,0.00,Rain,Light Rain,230,2012-09-18 15:41:00
11:51 AM,66.9,64.9,93,29.69,5.0,SW,4.6,-,0.00,Rain,Light Rain,230,2012-09-18 15:51:00
12:51 PM,68.0,64.0,87,29.69,5.0,West,3.5,-,0.00,,Overcast,260,2012-09-18 16:51:00
1:51 PM,68.0,64.0,87,29.70,6.0,Variable,3.5,-,0.00,,Overcast,0,2012-09-18 17:51:00
2:13 PM,69.8,62.6,78,29.71,6.0,WNW,8.1,-,N/A,,Haze,300,2012-09-18 18:13:00
2:40 PM,68.0,64.4,88,29.72,6.0,WNW,5.8,-,N/A,,Overcast,300,2012-09-18 18:40:00
2:47 PM,68.0,62.6,83,29.72,6.0,WNW,10.4,-,N/A,,Haze,290,2012-09-18 18:47:00
2:51 PM,69.1,63.0,81,29.70,6.0,NW,9.2,-,N/A,,Haze,310,2012-09-18 18:51:00
3:51 PM,66.9,59.0,76,29.74,6.0,WNW,11.5,21.9,N/A,,Haze,290,2012-09-18 19:51:00
4:51 PM,66.9,57.0,70,29.75,10.0,WNW,6.9,16.1,N/A,,Scattered Clouds,300,2012-09-18 20:51:00
5:51 PM,68.0,55.0,63,29.77,10.0,WNW,8.1,-,N/A,,Mostly Cloudy,300,2012-09-18 21:51:00
6:51 PM,66.0,54.0,65,29.81,10.0,WNW,6.9,-,N/A,,Partly Cloudy,300,2012-09-18 22:51:00
7:51 PM,64.9,53.1,65,29.85,10.0,NW,8.1,-,N/A,,Overcast,310,2012-09-18 23:51:00
8:51 PM,62.1,55.0,78,29.89,10.0,Calm,Calm,-,N/A,,Mostly Cloudy,0,2012-09-19 00:51:00
9:51 PM,62.1,53.1,72,29.92,10.0,WNW,5.8,-,N/A,,Overcast,290,2012-09-19 01:51:00
10:51 PM,60.1,48.9,67,29.94,10.0,WNW,5.8,-,N/A,,Scattered Clouds,290,2012-09-19 02:51:00
11:51 PM,57.0,48.0,72,29.97,10.0,NW,5.8,-,N/A,,Partly Cloudy,320,2012-09-19 03:51:00